createdAt,value
2023-03-01T00:04:46.394Z,7.28
2023-03-01T00:07:13.887Z,6.85
2023-03-01T00:09:41.596Z,7.53
2023-03-01T00:12:09.757Z,8.05
2023-03-01T00:14:37.802Z,7.00
2023-03-01T00:17:05.628Z,6.95
2023-03-01T00:19:33.872Z,6.65
2023-03-01T00:22:01.453Z,7.78
2023-03-01T00:24:34.269Z,6.82
2023-03-01T00:27:02.541Z,7.80
2023-03-01T00:29:30.005Z,7.90
2023-03-01T00:31:58.218Z,7.47
2023-03-01T00:34:26.365Z,7.22
2023-03-01T00:36:54.119Z,6.95
2023-03-01T00:39:23.041Z,7.28
2023-03-01T00:41:51.743Z,7.93
2023-03-01T00:44:19.666Z,7.53
2023-03-01T00:46:48.056Z,8.00
2023-03-01T00:49:15.746Z,7.75
2023-03-01T00:51:44.240Z,7.07
2023-03-01T00:54:11.930Z,7.40
2023-03-01T00:56:39.775Z,7.25
2023-03-01T00:59:07.826Z,7.18
2023-03-01T01:01:35.772Z,6.85
2023-03-01T01:04:05.098Z,7.38
2023-03-01T01:06:43.561Z,6.70
2023-03-01T01:09:21.467Z,7.05
2023-03-01T01:11:51.556Z,6.70
2023-03-01T01:14:23.476Z,6.40
2023-03-01T01:16:53.566Z,6.68
2023-03-01T01:19:25.199Z,7.15
2023-03-01T01:21:54.341Z,7.18
2023-03-01T01:24:22.567Z,7.10
2023-03-01T01:26:52.505Z,6.93
2023-03-01T01:29:21.174Z,6.88
2023-03-01T01:31:51.340Z,6.43
2023-03-01T01:34:22.925Z,6.82
2023-03-01T01:36:55.159Z,7.10
2023-03-01T01:39:26.037Z,7.22
2023-03-01T01:41:54.077Z,7.13
2023-03-01T01:44:29.216Z,6.93
2023-03-01T01:47:01.147Z,7.43
2023-03-01T01:49:31.550Z,6.70
2023-03-01T01:52:11.601Z,7.07
2023-03-01T01:54:58.194Z,7.38
2023-03-01T01:57:30.025Z,7.60
2023-03-01T01:59:59.698Z,7.47
2023-03-01T02:02:29.132Z,6.35
2023-03-01T02:05:05.674Z,7.63
2023-03-01T02:07:35.470Z,6.75
2023-03-01T02:10:03.921Z,7.18
2023-03-01T02:12:34.799Z,7.13
2023-03-01T02:15:02.965Z,6.88
2023-03-01T02:17:30.642Z,7.63
2023-03-01T02:20:13.886Z,7.50
2023-03-01T02:22:41.948Z,7.32
2023-03-01T02:25:22.933Z,7.72
2023-03-01T02:28:01.758Z,7.38
2023-03-01T02:30:30.570Z,7.40
2023-03-01T02:33:04.088Z,7.47
2023-03-01T02:35:37.355Z,7.28
2023-03-01T02:38:05.824Z,7.65
2023-03-01T02:40:35.159Z,6.88
2023-03-01T02:43:03.909Z,7.07
2023-03-01T02:45:31.498Z,7.70
2023-03-01T02:48:00.187Z,6.72
2023-03-01T02:50:29.458Z,7.35
2023-03-01T02:53:18.588Z,7.07
2023-03-01T02:55:46.346Z,7.10
2023-03-01T02:58:18.363Z,7.05
2023-03-01T03:00:48.128Z,7.30
2023-03-01T03:03:22.934Z,6.85
2023-03-01T03:05:52.250Z,6.53
2023-03-01T03:08:25.242Z,6.93
2023-03-01T03:10:54.377Z,6.63
2023-03-01T03:13:23.692Z,6.63
2023-03-01T03:15:52.631Z,6.90
2023-03-01T03:18:21.514Z,6.65
2023-03-01T03:20:53.601Z,6.07
2023-03-01T03:23:23.038Z,6.75
2023-03-01T03:25:52.480Z,6.20
2023-03-01T03:28:21.906Z,6.78
2023-03-01T03:30:51.150Z,7.00
2023-03-01T03:33:18.760Z,7.10
2023-03-01T03:35:47.422Z,6.82
2023-03-01T03:38:18.930Z,6.85
2023-03-01T03:40:47.932Z,7.13
2023-03-01T03:43:17.026Z,7.28
2023-03-01T03:45:48.344Z,7.20
2023-03-01T03:48:16.611Z,7.30
2023-03-01T03:50:44.158Z,7.32
2023-03-01T03:53:13.447Z,7.93
2023-03-01T03:55:41.345Z,7.75
2023-03-01T03:58:10.749Z,7.57
2023-03-01T04:00:38.643Z,8.20
2023-03-01T04:03:06.445Z,7.90
2023-03-01T04:05:34.557Z,7.43
2023-03-01T04:08:02.429Z,7.57
2023-03-01T04:10:30.946Z,7.20
2023-03-01T04:12:59.053Z,7.72
2023-03-01T04:15:28.093Z,7.93
2023-03-01T04:17:56.062Z,7.85
2023-03-01T04:20:26.255Z,7.90
2023-03-01T04:23:11.989Z,7.80
2023-03-01T04:25:40.552Z,8.57
2023-03-01T04:28:08.273Z,7.55
2023-03-01T04:30:37.806Z,7.85
2023-03-01T04:33:06.497Z,7.70
2023-03-01T04:35:34.109Z,7.68
2023-03-01T04:38:02.412Z,7.50
2023-03-01T04:40:30.339Z,7.35
2023-03-01T04:42:57.949Z,8.13
2023-03-01T04:45:26.027Z,7.90
2023-03-01T04:47:53.666Z,7.45
2023-03-01T04:50:24.556Z,7.78
2023-03-01T04:52:52.931Z,7.97
2023-03-01T04:55:28.130Z,7.32
2023-03-01T04:57:56.297Z,7.38
2023-03-01T05:00:24.606Z,7.72
2023-03-01T05:02:56.784Z,7.45
2023-03-01T05:05:26.886Z,8.13
2023-03-01T05:07:55.330Z,7.97
2023-03-01T05:10:25.032Z,8.35
2023-03-01T05:15:27.749Z,7.63
2023-03-01T05:17:56.519Z,7.85
2023-03-01T05:20:24.406Z,8.70
2023-03-01T05:22:53.051Z,8.13
2023-03-01T05:25:22.522Z,8.25
2023-03-01T05:27:51.090Z,7.60
2023-03-01T05:30:19.377Z,7.90
2023-03-01T05:32:49.740Z,7.32
2023-03-01T05:37:49.152Z,7.23
2023-03-01T05:40:19.108Z,7.45
2023-03-01T05:42:51.827Z,7.30
2023-03-01T05:45:20.099Z,7.72
2023-03-01T05:47:50.064Z,8.35
2023-03-01T05:50:23.303Z,8.17
2023-03-01T05:52:53.224Z,7.63
2023-03-01T05:55:22.476Z,8.27
2023-03-01T05:57:51.375Z,8.25
2023-03-01T06:00:22.146Z,8.10
2023-03-01T06:02:49.985Z,7.50
2023-03-01T06:05:20.493Z,8.40
2023-03-01T06:07:48.874Z,7.85
2023-03-01T06:10:18.414Z,7.85
2023-03-01T06:12:46.134Z,7.83
2023-03-01T06:15:15.083Z,7.75
2023-03-01T06:17:43.460Z,7.80
2023-03-01T06:20:11.504Z,7.93
2023-03-01T06:22:45.748Z,7.63
2023-03-01T06:25:14.412Z,8.05
2023-03-01T06:27:42.346Z,8.38
2023-03-01T06:30:11.785Z,7.43
2023-03-01T06:32:43.944Z,7.50
2023-03-01T06:35:12.502Z,8.27
2023-03-01T06:37:40.600Z,8.68
2023-03-01T06:40:09.414Z,7.45
2023-03-01T06:42:37.516Z,8.98
2023-03-01T06:45:06.381Z,7.60
2023-03-01T06:47:34.815Z,7.47
2023-03-01T06:50:03.513Z,8.05
2023-03-01T06:52:31.870Z,8.32
2023-03-01T06:55:00.443Z,8.18
2023-03-01T06:57:28.069Z,7.78
2023-03-01T06:59:55.822Z,8.55
2023-03-01T07:02:23.705Z,8.18
2023-03-01T07:04:52.331Z,8.55
2023-03-01T07:07:19.943Z,8.23
2023-03-01T07:09:51.398Z,8.77
2023-03-01T07:12:19.045Z,8.30
2023-03-01T07:14:46.566Z,8.43
2023-03-01T07:17:14.638Z,9.52
2023-03-01T07:19:42.432Z,8.82
2023-03-01T07:22:10.436Z,8.70
2023-03-01T07:24:38.040Z,8.50
2023-03-01T07:27:05.715Z,8.43
2023-03-01T07:29:33.505Z,8.98
2023-03-01T07:32:01.962Z,8.85
2023-03-01T07:34:29.492Z,8.60
2023-03-01T07:36:58.283Z,9.13
2023-03-01T07:39:26.773Z,9.97
2023-03-01T07:41:54.622Z,9.40
2023-03-01T07:44:23.600Z,9.18
2023-03-01T07:46:57.540Z,9.68
2023-03-01T07:49:27.370Z,9.25
2023-03-01T07:51:59.485Z,9.73
2023-03-01T07:54:27.640Z,8.90
2023-03-01T07:56:56.522Z,9.35
2023-03-01T07:59:30.171Z,9.15
2023-03-01T08:01:59.852Z,9.82
2023-03-01T08:04:27.822Z,10.07
2023-03-01T08:06:56.395Z,9.50
2023-03-01T08:09:24.264Z,10.00
2023-03-01T08:11:52.544Z,10.35
2023-03-01T08:14:20.166Z,10.13
2023-03-01T08:16:51.310Z,10.48
2023-03-01T08:19:19.283Z,9.77
2023-03-01T08:21:47.057Z,10.05
2023-03-01T08:24:14.837Z,9.65
2023-03-01T08:26:42.453Z,9.85
2023-03-01T08:29:10.255Z,8.88
2023-03-01T08:31:40.017Z,9.60
2023-03-01T08:34:09.783Z,9.13
2023-03-01T08:36:42.002Z,8.65
2023-03-01T08:39:12.133Z,8.85
2023-03-01T08:41:40.729Z,8.60
2023-03-01T08:44:08.883Z,9.43
2023-03-01T08:46:37.902Z,8.43
2023-03-01T08:49:14.386Z,8.93
2023-03-01T08:51:42.242Z,8.18
2023-03-01T08:54:17.373Z,8.02
2023-03-01T08:56:45.082Z,8.93
2023-03-01T08:59:14.421Z,8.77
2023-03-01T09:01:44.461Z,8.50
2023-03-01T09:04:12.669Z,8.65
2023-03-01T09:06:40.754Z,8.73
2023-03-01T09:09:10.298Z,9.05
2023-03-01T09:11:38.600Z,8.20
2023-03-01T09:14:09.513Z,7.65
2023-03-01T09:16:41.108Z,7.63
2023-03-01T09:19:09.203Z,7.88
2023-03-01T09:21:40.749Z,7.38
2023-03-01T09:24:15.510Z,7.68
2023-03-01T09:26:48.061Z,7.40
2023-03-01T09:29:23.883Z,7.13
2023-03-01T09:31:52.470Z,6.70
2023-03-01T09:34:24.473Z,6.93
2023-03-01T09:36:55.513Z,6.32
2023-03-01T09:39:23.896Z,6.70
2023-03-01T09:42:05.718Z,6.70
2023-03-01T09:44:43.993Z,6.00
2023-03-01T09:47:17.441Z,6.07
2023-03-01T09:49:49.852Z,6.65
2023-03-01T09:52:33.226Z,6.55
2023-03-01T09:55:01.163Z,6.68
2023-03-01T09:57:40.985Z,6.35
2023-03-01T10:00:13.001Z,6.70
2023-03-01T10:02:40.470Z,7.05
2023-03-01T10:05:28.592Z,7.07
2023-03-01T10:08:04.391Z,7.50
2023-03-01T10:10:36.644Z,8.00
2023-03-01T10:13:08.951Z,7.90
2023-03-01T10:15:40.734Z,9.02
2023-03-01T10:18:21.398Z,7.93
2023-03-01T10:20:49.243Z,7.53
2023-03-01T10:23:18.900Z,6.60
2023-03-01T10:25:48.200Z,5.90
2023-03-01T10:28:20.093Z,5.13
2023-03-01T10:30:48.701Z,5.47
2023-03-01T10:33:22.335Z,4.88
2023-03-01T10:35:50.398Z,5.15
2023-03-01T10:38:21.973Z,5.20
2023-03-01T10:40:55.924Z,5.60
2023-03-01T10:43:23.745Z,5.45
2023-03-01T10:45:51.630Z,5.25
2023-03-01T10:48:22.990Z,5.20
2023-03-01T10:50:55.243Z,5.57
2023-03-01T10:53:28.387Z,5.20
2023-03-01T10:56:08.495Z,5.60
2023-03-01T10:58:37.641Z,6.13
2023-03-01T11:01:06.506Z,5.32
2023-03-01T11:03:40.920Z,5.43
2023-03-01T11:06:23.955Z,5.50
2023-03-01T11:08:53.207Z,5.03
2023-03-01T11:11:24.086Z,5.50
2023-03-01T11:13:53.524Z,5.40
2023-03-01T11:16:26.047Z,5.50
2023-03-01T11:19:05.782Z,5.20
2023-03-01T11:21:35.278Z,5.40
2023-03-01T11:24:03.733Z,5.50
2023-03-01T11:26:33.237Z,5.57
2023-03-01T11:29:04.107Z,5.97
2023-03-01T11:31:33.276Z,6.07
2023-03-01T11:34:12.090Z,5.90
2023-03-01T11:36:44.948Z,5.90
2023-03-01T11:39:18.244Z,6.38
2023-03-01T11:41:49.574Z,6.55
2023-03-01T11:44:27.054Z,6.63
2023-03-01T11:46:57.797Z,5.88
2023-03-01T11:49:52.747Z,6.72
2023-03-01T11:52:28.063Z,5.70
2023-03-01T11:54:55.915Z,5.70
2023-03-01T11:57:34.127Z,6.03
2023-03-01T12:00:16.258Z,5.72
2023-03-01T12:03:09.287Z,5.32
2023-03-01T12:05:51.185Z,5.75
2023-03-01T12:08:38.973Z,5.47
2023-03-01T12:11:25.622Z,5.60
2023-03-01T12:13:56.707Z,5.70
2023-03-01T12:16:37.524Z,5.07
2023-03-01T12:19:06.358Z,5.13
2023-03-01T12:21:59.084Z,5.53
2023-03-01T12:24:28.204Z,5.68
2023-03-01T12:26:55.695Z,6.22
2023-03-01T12:29:27.040Z,5.72
2023-03-01T12:32:06.668Z,6.07
2023-03-01T12:34:44.667Z,5.90
2023-03-01T12:37:17.157Z,5.43
2023-03-01T12:40:04.382Z,5.45
2023-03-01T12:42:58.644Z,5.47
2023-03-01T12:45:33.599Z,5.80
2023-03-01T12:48:07.245Z,6.00
2023-03-01T12:50:55.465Z,6.15
2023-03-01T12:53:41.793Z,5.97
2023-03-01T12:56:15.118Z,5.78
2023-03-01T12:59:01.530Z,6.38
2023-03-01T13:01:44.918Z,5.93
2023-03-01T13:04:24.670Z,5.53
2023-03-01T13:07:01.197Z,5.75
2023-03-01T13:09:37.928Z,6.50
2023-03-01T13:12:12.952Z,6.15
2023-03-01T13:14:47.415Z,6.53
2023-03-01T13:17:34.881Z,6.20
2023-03-01T13:20:04.006Z,6.50
2023-03-01T13:22:33.612Z,6.80
2023-03-01T13:27:30.659Z,5.80
2023-03-01T13:30:06.816Z,6.07
2023-03-01T13:32:44.524Z,6.47
2023-03-01T13:35:12.595Z,6.15
2023-03-01T13:37:40.652Z,6.78
2023-03-01T13:40:17.984Z,6.45
2023-03-01T13:43:04.661Z,6.13
2023-03-01T13:45:44.440Z,6.10
2023-03-01T13:48:12.248Z,6.25
2023-03-01T13:50:57.255Z,6.25
2023-03-01T13:53:26.883Z,5.60
2023-03-01T13:55:59.835Z,6.40
2023-03-01T13:58:30.437Z,5.78
2023-03-01T14:00:59.314Z,6.22
2023-03-01T14:03:27.514Z,6.15
2023-03-01T14:06:13.346Z,6.45
2023-03-01T14:08:42.203Z,6.20
2023-03-01T14:11:29.362Z,6.10
2023-03-01T14:14:15.376Z,5.75
2023-03-01T14:17:09.698Z,6.28
2023-03-01T14:19:37.426Z,6.75
2023-03-01T14:22:21.472Z,6.60
2023-03-01T14:24:53.021Z,6.35
2023-03-01T14:27:22.301Z,6.75
2023-03-01T14:30:04.197Z,6.28
2023-03-01T14:32:33.736Z,6.50
2023-03-01T14:35:02.243Z,6.55
2023-03-01T14:37:35.481Z,6.20
2023-03-01T14:40:05.166Z,5.57
2023-03-01T14:42:35.949Z,5.90
2023-03-01T14:45:05.809Z,5.80
2023-03-01T14:47:34.481Z,5.95
2023-03-01T14:50:02.116Z,6.25
2023-03-01T14:52:35.277Z,6.07
2023-03-01T14:55:04.566Z,6.05
2023-03-01T14:57:32.807Z,5.70
2023-03-01T15:00:05.340Z,6.15
2023-03-01T15:02:33.522Z,5.88
2023-03-01T15:05:03.489Z,5.53
2023-03-01T15:07:36.691Z,6.22
2023-03-01T15:10:06.034Z,6.18
2023-03-01T15:12:33.743Z,6.63
2023-03-01T15:15:04.314Z,6.03
2023-03-01T15:17:46.922Z,6.10
2023-03-01T15:20:23.777Z,5.93
2023-03-01T15:22:54.094Z,6.00
2023-03-01T15:25:27.131Z,5.75
2023-03-01T15:27:57.053Z,5.55
2023-03-01T15:30:27.279Z,6.00
2023-03-01T15:33:21.458Z,6.07
2023-03-01T15:35:54.405Z,6.40
2023-03-01T15:38:35.002Z,5.50
2023-03-01T15:41:04.485Z,6.35
2023-03-01T15:43:42.994Z,5.87
2023-03-01T15:46:28.471Z,6.13
2023-03-01T15:48:57.891Z,5.82
2023-03-01T15:51:30.910Z,5.75
2023-03-01T15:54:00.672Z,5.68
2023-03-01T15:56:28.369Z,6.22
2023-03-01T15:58:59.598Z,5.80
2023-03-01T16:01:28.244Z,5.80
2023-03-01T16:03:56.109Z,6.20
2023-03-01T16:06:23.748Z,6.90
2023-03-01T16:08:52.334Z,6.65
2023-03-01T16:11:21.255Z,6.47
2023-03-01T16:13:50.004Z,6.03
2023-03-01T16:16:23.689Z,5.97
2023-03-01T16:18:55.718Z,6.07
2023-03-01T16:21:27.460Z,5.75
2023-03-01T16:23:55.302Z,5.40
2023-03-01T16:26:23.373Z,5.78
2023-03-01T16:28:51.290Z,5.97
2023-03-01T16:31:21.357Z,5.70
2023-03-01T16:33:52.513Z,5.88
2023-03-01T16:36:25.060Z,5.70
2023-03-01T16:38:58.448Z,5.75
2023-03-01T16:41:26.419Z,5.72
2023-03-01T16:43:54.938Z,5.50
2023-03-01T16:46:24.435Z,5.45
2023-03-01T16:48:53.202Z,5.75
2023-03-01T16:51:22.596Z,5.65
2023-03-01T16:53:51.091Z,5.20
2023-03-01T16:56:20.039Z,5.68
2023-03-01T16:58:49.838Z,5.20
2023-03-01T17:01:18.800Z,5.10
2023-03-01T17:03:47.454Z,6.10
2023-03-01T17:06:17.523Z,7.93
2023-03-01T17:08:45.643Z,5.70
2023-03-01T17:11:20.854Z,5.43
2023-03-01T17:13:49.710Z,6.13
2023-03-01T17:16:19.148Z,6.32
2023-03-01T17:18:47.243Z,6.30
2023-03-01T17:21:15.950Z,6.35
2023-03-01T17:23:45.635Z,5.88
2023-03-01T17:26:13.722Z,6.15
2023-03-01T17:28:44.103Z,6.25
2023-03-01T17:31:11.888Z,5.85
2023-03-01T17:33:44.801Z,6.30
2023-03-01T17:36:13.516Z,6.70
2023-03-01T17:38:46.920Z,6.82
2023-03-01T17:41:17.914Z,7.28
2023-03-01T17:43:46.657Z,8.80
2023-03-01T17:46:14.674Z,7.45
2023-03-01T17:48:42.546Z,7.72
2023-03-01T17:51:11.392Z,10.38
2023-03-01T17:53:39.752Z,6.20
2023-03-01T17:56:08.596Z,5.95
2023-03-01T17:58:36.863Z,7.28
2023-03-01T18:01:12.896Z,6.53
2023-03-01T18:03:41.488Z,7.07
2023-03-01T18:06:16.375Z,5.80
2023-03-01T18:08:45.408Z,5.10
2023-03-01T18:11:16.257Z,6.63
2023-03-01T18:13:44.134Z,6.53
2023-03-01T18:16:13.944Z,8.00
2023-03-01T18:18:42.227Z,7.90
2023-03-01T18:21:09.969Z,7.78
2023-03-01T18:23:37.847Z,7.72
2023-03-01T18:26:12.105Z,11.07
2023-03-01T18:28:40.246Z,26.15
2023-03-01T18:31:12.095Z,22.08
2023-03-01T18:33:40.408Z,17.02
2023-03-01T18:36:16.919Z,16.98
2023-03-01T18:38:45.144Z,8.10
2023-03-01T18:41:12.669Z,8.40
2023-03-01T18:43:40.416Z,7.28
2023-03-01T18:46:08.660Z,8.38
2023-03-01T18:48:37.349Z,6.97
2023-03-01T18:51:11.055Z,6.45
2023-03-01T18:53:42.273Z,5.40
2023-03-01T18:56:10.329Z,8.27
2023-03-01T18:58:38.720Z,7.20
2023-03-01T19:01:08.487Z,6.38
2023-03-01T19:03:36.383Z,6.22
2023-03-01T19:06:05.247Z,6.20
2023-03-01T19:08:33.419Z,6.28
2023-03-01T19:11:02.732Z,7.10
2023-03-01T19:13:31.096Z,6.18
2023-03-01T19:16:05.901Z,5.82
2023-03-01T19:18:34.095Z,6.03
2023-03-01T19:21:04.243Z,6.93
2023-03-01T19:23:35.184Z,6.68
2023-03-01T19:26:03.635Z,6.68
2023-03-01T19:28:31.513Z,7.55
2023-03-01T19:31:08.018Z,7.32
2023-03-01T19:33:36.188Z,7.15
2023-03-01T19:36:04.321Z,6.60
2023-03-01T19:38:33.182Z,7.95
2023-03-01T19:41:04.945Z,7.57
2023-03-01T19:43:33.711Z,8.13
2023-03-01T19:46:01.432Z,7.60
2023-03-01T19:48:29.931Z,7.50
2023-03-01T19:50:58.731Z,7.72
2023-03-01T19:53:26.533Z,11.23
2023-03-01T19:56:01.032Z,7.50
2023-03-01T19:58:31.896Z,8.90
2023-03-01T20:01:00.944Z,7.97
2023-03-01T20:03:29.206Z,6.00
2023-03-01T20:05:57.652Z,6.22
2023-03-01T20:08:26.254Z,5.20
2023-03-01T20:10:54.621Z,6.15
2023-03-01T20:13:24.177Z,6.40
2023-03-01T20:15:52.690Z,6.57
2023-03-01T20:18:21.330Z,5.53
2023-03-01T20:20:53.303Z,6.55
2023-03-01T20:23:23.625Z,6.15
2023-03-01T20:25:52.716Z,6.72
2023-03-01T20:28:21.236Z,5.50
2023-03-01T20:30:49.090Z,5.80
2023-03-01T20:33:16.818Z,7.18
2023-03-01T20:35:44.837Z,5.60
2023-03-01T20:38:12.704Z,6.10
2023-03-01T20:40:40.370Z,6.10
2023-03-01T20:43:07.979Z,6.45
2023-03-01T20:45:36.097Z,6.18
2023-03-01T20:48:03.985Z,6.28
2023-03-01T20:50:31.552Z,6.25
2023-03-01T20:52:59.399Z,6.25
2023-03-01T20:55:27.103Z,6.50
2023-03-01T20:57:56.042Z,6.45
2023-03-01T21:00:24.117Z,6.07
2023-03-01T21:02:52.476Z,6.25
2023-03-01T21:05:20.102Z,6.15
2023-03-01T21:07:48.609Z,6.85
2023-03-01T21:10:16.383Z,6.30
2023-03-01T21:12:44.003Z,6.45
2023-03-01T21:15:23.558Z,6.50
2023-03-01T21:17:56.407Z,5.93
2023-03-01T21:20:24.092Z,6.15
2023-03-01T21:22:52.643Z,6.07
2023-03-01T21:25:23.245Z,6.35
2023-03-01T21:30:19.999Z,6.18
2023-03-01T21:32:48.853Z,6.53
2023-03-01T21:35:16.751Z,6.38
2023-03-01T21:37:44.445Z,6.32
2023-03-01T21:40:12.694Z,8.40
2023-03-01T21:42:44.563Z,6.63
2023-03-01T21:45:12.248Z,5.80
2023-03-01T21:47:40.459Z,6.18
2023-03-01T21:50:08.853Z,6.43
2023-03-01T21:52:36.706Z,6.43
2023-03-01T21:55:04.592Z,6.53
2023-03-01T21:57:32.477Z,7.43
2023-03-01T22:00:00.304Z,6.30
2023-03-01T22:02:27.841Z,7.25
2023-03-01T22:04:57.780Z,7.28
2023-03-01T22:07:25.363Z,7.93
2023-03-01T22:09:53.671Z,7.50
2023-03-01T22:12:21.484Z,6.50
2023-03-01T22:14:49.331Z,6.28
2023-03-01T22:17:16.761Z,6.32
2023-03-01T22:19:46.462Z,6.35
2023-03-01T22:22:14.162Z,6.70
2023-03-01T22:24:41.721Z,6.35
2023-03-01T22:27:09.426Z,5.82
2023-03-01T22:29:37.189Z,6.07
2023-03-01T22:32:05.043Z,6.45
2023-03-01T22:34:32.706Z,6.15
2023-03-01T22:37:00.540Z,6.70
2023-03-01T22:39:28.896Z,6.28
2023-03-01T22:41:56.639Z,6.85
2023-03-01T22:44:24.425Z,5.95
2023-03-01T22:46:53.176Z,6.68
2023-03-01T22:49:21.852Z,6.50
2023-03-01T22:51:50.910Z,6.80
2023-03-01T22:54:22.630Z,6.72
2023-03-01T22:56:51.128Z,6.35
2023-03-01T22:59:22.775Z,6.95
2023-03-01T23:01:53.657Z,6.32
2023-03-01T23:04:22.361Z,6.85
2023-03-01T23:06:56.921Z,6.45
2023-03-01T23:09:26.618Z,6.70
2023-03-01T23:11:55.032Z,6.72
2023-03-01T23:14:23.895Z,6.78
2023-03-01T23:16:52.516Z,6.18
2023-03-01T23:19:19.982Z,6.60
2023-03-01T23:21:51.197Z,6.80
2023-03-01T23:26:53.324Z,7.63
2023-03-01T23:29:22.077Z,7.55
2023-03-01T23:31:49.723Z,6.72
2023-03-01T23:34:17.702Z,7.57
2023-03-01T23:36:45.367Z,7.63
2023-03-01T23:39:14.044Z,7.53
2023-03-01T23:41:41.866Z,7.22
2023-03-01T23:44:09.574Z,7.57
2023-03-01T23:46:38.266Z,7.50
2023-03-01T23:49:05.800Z,7.47
2023-03-01T23:51:33.650Z,7.78
2023-03-01T23:54:02.433Z,7.82
2023-03-01T23:56:31.868Z,8.20
2023-03-01T23:59:02.496Z,9.17
